Time;durP1;ratioP1;P1;durP2;ratioP2;P2;SDS_P1;SDS_P2;PMS_P1;PMS_P2;Temp;Humidity;BMP_temperature;BMP_pressure;BME280_temperature;BME280_humidity;BME280_pressure;Samples;Min_cycle;Max_cycle;Signal;HPM_P1;HPM_P2
2023/01/17 00:01:50;;;;;;;1.55;1.08;;;;;;;;;;5050993;28;20017;-80
2023/01/17 00:09:52;;;;;;;0.77;0.77;;;;;;;;;;5054750;28;20086;-80
2023/01/17 00:12:19;;;;;;;1.13;1.00;;;;;;;;;;5061276;28;20517;-79
2023/01/17 00:14:45;;;;;;;1.45;0.93;;;;;;;;;;5056816;28;20595;-79
2023/01/17 00:17:11;;;;;;;1.25;0.90;;;;;;;;;;5049470;28;20183;-80
2023/01/17 01:34:34;;;;;;;1.80;1.00;;;;;;;;;;5060155;28;20051;-80
2023/01/17 01:37:01;;;;;;;2.08;0.73;;;;;;;;;;5062610;28;20036;-80
2023/01/17 01:39:27;;;;;;;0.60;0.60;;;;;;;;;;5053408;28;20060;-80
2023/01/17 01:41:53;;;;;;;1.15;0.88;;;;;;;;;;5061264;28;20036;-80
2023/01/17 01:44:37;;;;;;;0.70;0.68;;;;;;;;;;5053217;28;20036;-80
2023/01/17 01:47:03;;;;;;;1.10;0.80;;;;;;;;;;5066358;28;20040;-80
2023/01/17 01:49:29;;;;;;;0.90;0.80;;;;;;;;;;5050393;28;20021;-79
2023/01/17 01:51:56;;;;;;;0.85;0.73;;;;;;;;;;5051361;28;20036;-79
2023/01/17 01:54:25;;;;;;;1.25;1.00;;;;;;;;;;5059776;28;20046;-79
2023/01/17 01:56:52;;;;;;;1.25;0.98;;;;;;;;;;5063644;28;20020;-80
2023/01/17 01:59:19;;;;;;;1.00;0.77;;;;;;;;;;5051143;28;20360;-79
2023/01/17 02:01:46;;;;;;;1.65;0.88;;;;;;;;;;5058567;28;20031;-80
2023/01/17 02:04:12;;;;;;;0.73;0.73;;;;;;;;;;5054236;28;20028;-80
2023/01/17 02:06:41;;;;;;;1.02;0.95;;;;;;;;;;5059935;28;20446;-80
2023/01/17 02:09:08;;;;;;;3.42;1.15;;;;;;;;;;5060571;28;20107;-80
2023/01/17 02:11:35;;;;;;;0.90;0.70;;;;;;;;;;5050468;28;20085;-80
2023/01/17 02:14:01;;;;;;;1.80;0.90;;;;;;;;;;5058468;28;20158;-80
2023/01/17 02:16:43;;;;;;;1.45;0.90;;;;;;;;;;5048066;28;20111;-80
2023/01/17 02:19:21;;;;;;;1.30;0.77;;;;;;;;;;5052061;28;20035;-80
2023/01/17 02:22:07;;;;;;;1.40;1.00;;;;;;;;;;5052696;28;20021;-80
2023/01/17 02:24:45;;;;;;;0.95;0.70;;;;;;;;;;5062401;28;20036;-80
2023/01/17 02:27:23;;;;;;;1.48;0.90;;;;;;;;;;5050344;28;20060;-80
2023/01/17 02:29:52;;;;;;;1.08;0.68;;;;;;;;;;5047562;28;20024;-80
2023/01/17 02:32:23;;;;;;;0.73;0.65;;;;;;;;;;5056635;28;20048;-79
2023/01/17 02:34:55;;;;;;;0.80;0.80;;;;;;;;;;5063330;28;20040;-80
2023/01/17 02:37:24;;;;;;;2.10;0.88;;;;;;;;;;5051063;28;20340;-80
2023/01/17 02:39:52;;;;;;;1.58;0.88;;;;;;;;;;5052598;28;20029;-80
2023/01/17 02:42:20;;;;;;;0.82;0.73;;;;;;;;;;5052845;28;20017;-80
2023/01/17 02:44:45;;;;;;;0.73;0.70;;;;;;;;;;5054665;28;20044;-80
2023/01/17 02:47:23;;;;;;;0.70;0.63;;;;;;;;;;5056917;28;20218;-79
2023/01/17 02:49:49;;;;;;;1.80;0.80;;;;;;;;;;5065153;28;20048;-79
2023/01/17 02:52:26;;;;;;;0.60;0.60;;;;;;;;;;5062270;28;20028;-79
2023/01/17 02:55:00;;;;;;;1.60;0.80;;;;;;;;;;5053350;28;20413;-80
2023/01/17 02:57:38;;;;;;;1.13;0.70;;;;;;;;;;5055805;28;20487;-79
2023/01/17 03:00:10;;;;;;;1.27;0.80;;;;;;;;;;5063039;28;20720;-79
2023/01/17 03:02:57;;;;;;;1.20;0.65;;;;;;;;;;5058855;28;20044;-80
2023/01/17 03:05:27;;;;;;;0.90;0.70;;;;;;;;;;5065551;28;20067;-80
2023/01/17 03:07:53;;;;;;;0.82;0.77;;;;;;;;;;5052072;28;20029;-79
2023/01/17 03:10:20;;;;;;;1.10;0.65;;;;;;;;;;5047683;28;20067;-80
2023/01/17 03:12:46;;;;;;;1.38;0.80;;;;;;;;;;5056934;28;20062;-80
2023/01/17 03:15:13;;;;;;;0.95;0.70;;;;;;;;;;5057428;28;20035;-80
2023/01/17 03:17:40;;;;;;;0.85;0.70;;;;;;;;;;5062036;28;20028;-80
2023/01/17 03:20:07;;;;;;;1.30;0.90;;;;;;;;;;5056738;28;20107;-80
2023/01/17 03:22:32;;;;;;;1.83;0.77;;;;;;;;;;5049862;28;20029;-80
2023/01/17 03:24:58;;;;;;;0.80;0.70;;;;;;;;;;5047483;28;20634;-79
2023/01/17 03:27:24;;;;;;;0.80;0.77;;;;;;;;;;5052397;28;20377;-80
2023/01/17 03:29:50;;;;;;;0.88;0.80;;;;;;;;;;5048786;28;20021;-79
2023/01/17 03:32:16;;;;;;;0.85;0.60;;;;;;;;;;5049952;28;20450;-79
2023/01/17 03:34:42;;;;;;;2.67;0.80;;;;;;;;;;5057123;28;20579;-80
2023/01/17 03:37:08;;;;;;;0.90;0.80;;;;;;;;;;5051896;28;20032;-79
2023/01/17 03:39:34;;;;;;;1.02;0.93;;;;;;;;;;5050221;28;20021;-79
2023/01/17 03:42:00;;;;;;;1.67;0.80;;;;;;;;;;5057947;28;20020;-79
2023/01/17 03:44:26;;;;;;;0.65;0.50;;;;;;;;;;5054031;28;20028;-79
2023/01/17 03:46:52;;;;;;;0.73;0.63;;;;;;;;;;5054392;28;20082;-79
2023/01/17 03:49:18;;;;;;;1.58;0.85;;;;;;;;;;5047240;28;20040;-78
2023/01/17 03:51:44;;;;;;;1.33;0.80;;;;;;;;;;5048906;28;20017;-79
2023/01/17 03:54:10;;;;;;;0.85;0.77;;;;;;;;;;5060610;28;20028;-79
2023/01/17 03:56:36;;;;;;;3.15;1.00;;;;;;;;;;5056535;28;20013;-79
2023/01/17 03:59:02;;;;;;;0.70;0.70;;;;;;;;;;5057065;28;20009;-79
2023/01/17 04:01:31;;;;;;;1.08;0.70;;;;;;;;;;5049571;28;20043;-78
2023/01/17 04:03:57;;;;;;;0.88;0.70;;;;;;;;;;5062404;28;20016;-78
2023/01/17 04:06:23;;;;;;;0.90;0.70;;;;;;;;;;5058508;28;20043;-78
2023/01/17 04:08:49;;;;;;;1.17;0.65;;;;;;;;;;5057179;28;20033;-78
2023/01/17 04:11:15;;;;;;;1.33;0.60;;;;;;;;;;5048582;28;20094;-77
2023/01/17 04:13:41;;;;;;;1.00;0.70;;;;;;;;;;5057888;28;20032;-79
2023/01/17 04:16:09;;;;;;;1.00;0.65;;;;;;;;;;5049570;28;20414;-79
2023/01/17 04:18:35;;;;;;;0.45;0.45;;;;;;;;;;5050541;28;20490;-79
2023/01/17 04:21:01;;;;;;;2.83;0.80;;;;;;;;;;5062241;28;20013;-79
2023/01/17 04:23:27;;;;;;;1.25;0.57;;;;;;;;;;5055324;28;20502;-79
2023/01/17 04:25:53;;;;;;;0.50;0.50;;;;;;;;;;5059956;28;20043;-80
2023/01/17 04:28:19;;;;;;;0.77;0.57;;;;;;;;;;5052312;28;20024;-79
2023/01/17 04:30:45;;;;;;;0.50;0.50;;;;;;;;;;5051755;28;20185;-79
2023/01/17 04:33:11;;;;;;;0.57;0.57;;;;;;;;;;5047197;28;20647;-79
2023/01/17 04:35:37;;;;;;;1.02;0.68;;;;;;;;;;5050648;28;20025;-77
2023/01/17 04:38:03;;;;;;;0.68;0.50;;;;;;;;;;5058499;28;20025;-78
2023/01/17 04:40:29;;;;;;;4.25;0.77;;;;;;;;;;5061812;28;20021;-79
2023/01/17 04:42:56;;;;;;;0.95;0.68;;;;;;;;;;5060133;28;20028;-79
2023/01/17 04:45:22;;;;;;;2.17;0.70;;;;;;;;;;5058064;28;20032;-79
2023/01/17 04:47:48;;;;;;;3.22;0.60;;;;;;;;;;5046297;28;20047;-79
2023/01/17 04:50:15;;;;;;;0.52;0.52;;;;;;;;;;5047265;28;20033;-79
2023/01/17 04:52:41;;;;;;;0.95;0.60;;;;;;;;;;5057932;28;20025;-80
2023/01/17 04:55:07;;;;;;;0.82;0.70;;;;;;;;;;5046748;28;20048;-79
2023/01/17 04:57:33;;;;;;;0.75;0.50;;;;;;;;;;5055404;28;20025;-79
2023/01/17 04:59:59;;;;;;;2.75;0.98;;;;;;;;;;5066025;28;20036;-79
2023/01/17 05:02:25;;;;;;;2.42;0.70;;;;;;;;;;5055470;28;20029;-79
2023/01/17 05:04:51;;;;;;;1.10;0.63;;;;;;;;;;5059027;28;20029;-79
2023/01/17 05:07:17;;;;;;;1.17;0.65;;;;;;;;;;5058976;28;20025;-79
2023/01/17 05:09:43;;;;;;;8.27;0.80;;;;;;;;;;5068781;28;20028;-78
2023/01/17 05:12:09;;;;;;;1.17;0.60;;;;;;;;;;5067045;28;20029;-78
2023/01/17 05:14:35;;;;;;;0.68;0.60;;;;;;;;;;5067153;28;20032;-79
2023/01/17 05:17:04;;;;;;;4.07;0.70;;;;;;;;;;5065565;28;20785;-79
2023/01/17 05:19:30;;;;;;;1.38;0.75;;;;;;;;;;5065599;28;20040;-79
2023/01/17 05:22:02;;;;;;;0.85;0.57;;;;;;;;;;5057935;28;20025;-78
2023/01/17 05:24:28;;;;;;;0.80;0.50;;;;;;;;;;5056916;28;20032;-79
2023/01/17 05:26:54;;;;;;;1.05;0.50;;;;;;;;;;5047259;28;20400;-78
2023/01/17 05:29:20;;;;;;;0.75;0.68;;;;;;;;;;5054754;28;20442;-79
2023/01/17 05:31:46;;;;;;;0.70;0.60;;;;;;;;;;5053097;28;20523;-78
2023/01/17 05:34:12;;;;;;;0.40;0.40;;;;;;;;;;5049478;28;20025;-78
2023/01/17 05:36:38;;;;;;;0.50;0.50;;;;;;;;;;5056755;28;20017;-77
2023/01/17 05:39:04;;;;;;;0.68;0.52;;;;;;;;;;5061697;28;20032;-81
2023/01/17 05:41:30;;;;;;;1.27;0.70;;;;;;;;;;5060086;28;20032;-80
2023/01/17 05:43:59;;;;;;;0.77;0.63;;;;;;;;;;5052605;28;20040;-80
2023/01/17 05:46:55;;;;;;;0.52;0.45;;;;;;;;;;5057769;28;20037;-80
2023/01/17 05:49:20;;;;;;;1.10;0.60;;;;;;;;;;5055407;28;20048;-80
2023/01/17 05:51:53;;;;;;;0.95;0.60;;;;;;;;;;5063195;28;20033;-80
2023/01/17 05:54:19;;;;;;;0.77;0.63;;;;;;;;;;5060091;28;20105;-80
2023/01/17 05:56:45;;;;;;;0.98;0.82;;;;;;;;;;5060679;28;20036;-79
2023/01/17 05:59:11;;;;;;;0.73;0.73;;;;;;;;;;5048208;28;20025;-81
2023/01/17 06:01:37;;;;;;;2.05;0.60;;;;;;;;;;5057248;28;20036;-81
2023/01/17 06:04:03;;;;;;;0.52;0.50;;;;;;;;;;5049771;28;20153;-79
2023/01/17 06:06:29;;;;;;;0.70;0.70;;;;;;;;;;5050618;28;20056;-77
2023/01/17 06:08:54;;;;;;;1.27;0.60;;;;;;;;;;5059175;28;20398;-75
2023/01/17 06:11:38;;;;;;;4.32;0.50;;;;;;;;;;5048583;28;20067;-81
2023/01/17 06:14:04;;;;;;;0.73;0.60;;;;;;;;;;5054580;28;20119;-77
2023/01/17 06:16:30;;;;;;;0.77;0.50;;;;;;;;;;5052416;28;22130;-79
2023/01/17 06:18:56;;;;;;;0.50;0.50;;;;;;;;;;5060562;28;20111;-78
2023/01/17 06:21:22;;;;;;;0.70;0.47;;;;;;;;;;5050884;28;20043;-79
2023/01/17 06:23:48;;;;;;;0.40;0.40;;;;;;;;;;5051996;28;20034;-79
2023/01/17 06:26:14;;;;;;;0.40;0.40;;;;;;;;;;5053745;28;20033;-73
2023/01/17 06:28:40;;;;;;;0.55;0.43;;;;;;;;;;5050428;28;20029;-80
2023/01/17 06:31:07;;;;;;;1.27;0.55;;;;;;;;;;5051477;28;20025;-80
2023/01/17 06:33:33;;;;;;;0.68;0.45;;;;;;;;;;5054465;28;20056;-81
2023/01/17 06:35:59;;;;;;;1.05;0.50;;;;;;;;;;5064776;28;20442;-81
2023/01/17 06:38:26;;;;;;;0.68;0.50;;;;;;;;;;5055061;28;20012;-79
2023/01/17 06:40:57;;;;;;;0.30;0.30;;;;;;;;;;5058238;28;20021;-80
2023/01/17 06:43:23;;;;;;;0.30;0.30;;;;;;;;;;5046993;28;20075;-82
2023/01/17 06:45:49;;;;;;;0.40;0.40;;;;;;;;;;5047470;28;20036;-81
2023/01/17 06:48:15;;;;;;;0.80;0.65;;;;;;;;;;5052436;28;20036;-82
2023/01/17 06:50:41;;;;;;;1.00;0.50;;;;;;;;;;5052367;28;20469;-82
2023/01/17 06:53:07;;;;;;;2.33;0.50;;;;;;;;;;5046261;28;20048;-82
2023/01/17 06:55:33;;;;;;;1.10;0.60;;;;;;;;;;5055106;28;20044;-82
2023/01/17 06:58:01;;;;;;;0.75;0.60;;;;;;;;;;5062385;28;20024;-82
2023/01/17 07:00:27;;;;;;;0.52;0.45;;;;;;;;;;5052612;28;21082;-82
2023/01/17 07:02:56;;;;;;;0.63;0.50;;;;;;;;;;5052171;28;20032;-82
2023/01/17 07:05:22;;;;;;;0.40;0.40;;;;;;;;;;5058468;28;20438;-83
2023/01/17 07:07:48;;;;;;;0.38;0.38;;;;;;;;;;5063795;28;20055;-82
2023/01/17 07:10:15;;;;;;;0.30;0.30;;;;;;;;;;5063476;28;20048;-82
2023/01/17 07:12:41;;;;;;;2.95;0.50;;;;;;;;;;5061266;28;20029;-82
2023/01/17 07:15:07;;;;;;;0.30;0.30;;;;;;;;;;5059284;28;20108;-81
2023/01/17 07:17:34;;;;;;;0.88;0.40;;;;;;;;;;5053495;28;20056;-82
2023/01/17 07:22:59;;;;;;;0.40;0.40;;;;;;;;;;5052858;28;20149;-83
2023/01/17 07:25:26;;;;;;;0.55;0.55;;;;;;;;;;5066699;28;20028;-82
2023/01/17 07:27:53;;;;;;;0.30;0.30;;;;;;;;;;5064274;28;20082;-83
2023/01/17 07:30:20;;;;;;;0.50;0.50;;;;;;;;;;5050067;28;20033;-82
2023/01/17 07:32:51;;;;;;;0.60;0.55;;;;;;;;;;5050874;28;20138;-82
2023/01/17 07:35:17;;;;;;;0.40;0.40;;;;;;;;;;5052467;28;20025;-83
2023/01/17 07:37:50;;;;;;;0.50;0.50;;;;;;;;;;5049113;28;20032;-81
2023/01/17 07:40:16;;;;;;;0.50;0.40;;;;;;;;;;5054587;28;20024;-81
2023/01/17 07:42:43;;;;;;;0.45;0.45;;;;;;;;;;5049994;28;20029;-81
2023/01/17 07:45:09;;;;;;;0.30;0.30;;;;;;;;;;5049903;28;20132;-81
2023/01/17 07:47:35;;;;;;;0.88;0.50;;;;;;;;;;5046977;28;20036;-82
2023/01/17 07:50:01;;;;;;;0.35;0.30;;;;;;;;;;5050563;28;20025;-84
2023/01/17 07:52:27;;;;;;;0.30;0.30;;;;;;;;;;5045028;28;20073;-85
2023/01/17 07:54:53;;;;;;;0.40;0.40;;;;;;;;;;5058336;28;20530;-82
2023/01/17 07:57:19;;;;;;;0.65;0.45;;;;;;;;;;5064798;28;20029;-83
2023/01/17 08:00:21;;;;;;;0.40;0.40;;;;;;;;;;5059008;28;20038;-82
2023/01/17 08:02:57;;;;;;;0.30;0.30;;;;;;;;;;5050240;28;20115;-83
2023/01/17 08:05:42;;;;;;;0.20;0.20;;;;;;;;;;5055251;28;20062;-82
2023/01/17 08:08:12;;;;;;;0.40;0.40;;;;;;;;;;5055162;28;20045;-81
2023/01/17 08:10:38;;;;;;;0.30;0.30;;;;;;;;;;5051678;28;20029;-79
2023/01/17 08:13:04;;;;;;;0.20;0.20;;;;;;;;;;5049425;28;20032;-79
2023/01/17 08:15:31;;;;;;;1.17;0.25;;;;;;;;;;5054163;28;20033;-79
2023/01/17 08:17:57;;;;;;;0.20;0.20;;;;;;;;;;5054186;28;20078;-80
2023/01/17 08:20:23;;;;;;;0.43;0.43;;;;;;;;;;5052897;28;20032;-78
2023/01/17 08:22:52;;;;;;;0.25;0.25;;;;;;;;;;5057809;28;20028;-77
2023/01/17 08:25:18;;;;;;;0.88;0.40;;;;;;;;;;5057287;28;20100;-79
2023/01/17 08:27:44;;;;;;;0.28;0.28;;;;;;;;;;5054271;28;20503;-78
2023/01/17 08:30:10;;;;;;;0.13;0.13;;;;;;;;;;5050331;28;20048;-79
2023/01/17 08:32:39;;;;;;;0.80;0.30;;;;;;;;;;5060900;28;20140;-78
2023/01/17 08:35:05;;;;;;;2.80;0.40;;;;;;;;;;5052411;28;20112;-78
2023/01/17 08:37:31;;;;;;;0.40;0.32;;;;;;;;;;5045191;28;20537;-80
2023/01/17 08:39:57;;;;;;;0.43;0.30;;;;;;;;;;5051463;28;20075;-79
2023/01/17 08:42:23;;;;;;;0.30;0.30;;;;;;;;;;5052894;28;20032;-80
2023/01/17 08:44:49;;;;;;;0.35;0.30;;;;;;;;;;5051640;28;20032;-80
2023/01/17 08:47:15;;;;;;;0.38;0.30;;;;;;;;;;5049262;28;20094;-80
2023/01/17 08:49:42;;;;;;;0.30;0.30;;;;;;;;;;5061847;28;20024;-80
2023/01/17 08:52:11;;;;;;;0.25;0.25;;;;;;;;;;5062062;28;20091;-79
2023/01/17 08:54:37;;;;;;;3.00;0.60;;;;;;;;;;5066757;28;20141;-78
2023/01/17 08:57:03;;;;;;;0.32;0.32;;;;;;;;;;5057485;28;20503;-74
2023/01/17 08:59:29;;;;;;;0.35;0.28;;;;;;;;;;5050260;28;20048;-76
2023/01/17 09:01:56;;;;;;;0.45;0.30;;;;;;;;;;5055877;28;20181;-76
2023/01/17 09:04:23;;;;;;;0.30;0.30;;;;;;;;;;5053811;28;21834;-75
2023/01/17 09:06:49;;;;;;;0.20;0.20;;;;;;;;;;5049735;28;20033;-75
2023/01/17 09:09:15;;;;;;;0.25;0.25;;;;;;;;;;5055894;28;20870;-75
2023/01/17 09:11:41;;;;;;;0.28;0.25;;;;;;;;;;5063181;28;20033;-79
2023/01/17 09:14:08;;;;;;;0.30;0.30;;;;;;;;;;5051807;28;20047;-79
2023/01/17 09:16:33;;;;;;;0.30;0.30;;;;;;;;;;5060581;28;20032;-76
2023/01/17 09:18:59;;;;;;;0.52;0.40;;;;;;;;;;5064523;28;20032;-77
2023/01/17 09:21:26;;;;;;;0.32;0.32;;;;;;;;;;5050800;28;20136;-78
2023/01/17 09:23:52;;;;;;;0.10;0.10;;;;;;;;;;5068284;28;20371;-79
2023/01/17 09:26:23;;;;;;;0.30;0.30;;;;;;;;;;5050966;28;20049;-74
2023/01/17 09:28:49;;;;;;;0.30;0.30;;;;;;;;;;5051584;28;20032;-76
2023/01/17 09:31:15;;;;;;;0.38;0.38;;;;;;;;;;5063608;28;20032;-75
2023/01/17 09:33:41;;;;;;;0.38;0.38;;;;;;;;;;5068515;28;20123;-75
2023/01/17 09:36:08;;;;;;;0.20;0.20;;;;;;;;;;5058200;28;20035;-75
2023/01/17 09:38:41;;;;;;;0.98;0.30;;;;;;;;;;5068257;28;20028;-75
2023/01/17 09:41:19;;;;;;;0.20;0.20;;;;;;;;;;5067331;28;20103;-75
2023/01/17 09:43:47;;;;;;;1.05;0.30;;;;;;;;;;5054082;28;20062;-75
2023/01/17 09:46:21;;;;;;;0.32;0.32;;;;;;;;;;5048929;28;20025;-75
2023/01/17 09:48:48;;;;;;;0.80;0.30;;;;;;;;;;5050184;28;20525;-75
2023/01/17 09:51:19;;;;;;;0.20;0.20;;;;;;;;;;5054779;28;20094;-75
2023/01/17 09:53:45;;;;;;;0.20;0.20;;;;;;;;;;5055522;28;20109;-75
2023/01/17 09:56:14;;;;;;;0.30;0.30;;;;;;;;;;5051184;28;20056;-76
2023/01/17 09:58:45;;;;;;;1.13;0.50;;;;;;;;;;5068210;28;20031;-76
2023/01/17 10:01:11;;;;;;;;;;;;;;;;;;5067994;28;20017;-76
2023/01/17 10:03:41;;;;;;;0.10;0.10;;;;;;;;;;5065249;28;19915;-75
2023/01/17 10:06:22;;;;;;;0.40;0.40;;;;;;;;;;5053995;28;20044;-76
2023/01/17 10:09:07;;;;;;;0.30;0.30;;;;;;;;;;5048226;28;20547;-72
2023/01/17 10:11:44;;;;;;;0.20;0.20;;;;;;;;;;5057441;28;20025;-73
2023/01/17 10:14:33;;;;;;;0.50;0.40;;;;;;;;;;5059053;28;20025;-73
2023/01/17 10:17:22;;;;;;;5.18;0.60;;;;;;;;;;5050731;28;20017;-74
2023/01/17 10:20:00;;;;;;;0.73;0.30;;;;;;;;;;5062206;28;20119;-76
2023/01/17 10:22:38;;;;;;;0.10;0.10;;;;;;;;;;5048676;28;20031;-74
2023/01/17 10:25:31;;;;;;;0.32;0.30;;;;;;;;;;5068359;28;20116;-76
2023/01/17 10:28:02;;;;;;;0.47;0.30;;;;;;;;;;5055484;28;20028;-75
2023/01/17 10:30:32;;;;;;;0.20;0.20;;;;;;;;;;5066489;28;20047;-75
2023/01/17 10:32:58;;;;;;;0.10;0.10;;;;;;;;;;5047444;28;20051;-75
2023/01/17 10:35:33;;;;;;;0.30;0.20;;;;;;;;;;5057062;28;20029;-75
2023/01/17 10:38:00;;;;;;;0.25;0.25;;;;;;;;;;5068126;28;20028;-75
2023/01/17 10:40:49;;;;;;;0.20;0.20;;;;;;;;;;5055907;28;20242;-75
2023/01/17 10:43:19;;;;;;;0.20;0.20;;;;;;;;;;5048739;28;20021;-76
2023/01/17 10:45:51;;;;;;;0.43;0.43;;;;;;;;;;5050658;28;20206;-75
2023/01/17 10:48:20;;;;;;;0.70;0.43;;;;;;;;;;5048254;28;20029;-75
2023/01/17 10:51:10;;;;;;;0.20;0.15;;;;;;;;;;5053229;28;20514;-75
2023/01/17 10:53:55;;;;;;;0.20;0.20;;;;;;;;;;5053168;28;20052;-79
2023/01/17 10:56:22;;;;;;;0.20;0.20;;;;;;;;;;5056930;28;20035;-79
2023/01/17 10:58:50;;;;;;;0.13;0.13;;;;;;;;;;5066583;28;20048;-80
2023/01/17 11:01:19;;;;;;;0.30;0.30;;;;;;;;;;5049080;28;20032;-79
2023/01/17 11:03:49;;;;;;;0.30;0.30;;;;;;;;;;5044982;28;20044;-80
2023/01/17 11:06:16;;;;;;;0.13;0.13;;;;;;;;;;5046917;28;20044;-80
2023/01/17 11:08:58;;;;;;;0.28;0.28;;;;;;;;;;5043245;28;20484;-80
2023/01/17 11:11:29;;;;;;;0.30;0.30;;;;;;;;;;5058675;28;20056;-81
2023/01/17 11:13:55;;;;;;;;;;;;;;;;;;5048529;28;20028;-81
2023/01/17 11:16:23;;;;;;;0.13;0.13;;;;;;;;;;5054445;28;19958;-81
2023/01/17 11:19:04;;;;;;;0.20;0.20;;;;;;;;;;5055832;28;20717;-82
2023/01/17 11:21:31;;;;;;;3.33;0.35;;;;;;;;;;5047158;28;20113;-81
2023/01/17 11:23:57;;;;;;;0.43;0.30;;;;;;;;;;5048511;28;20444;-81
2023/01/17 11:26:30;;;;;;;0.10;0.10;;;;;;;;;;5047756;28;20143;-80
2023/01/17 11:29:16;;;;;;;1.08;0.20;;;;;;;;;;5048122;28;20386;-80
2023/01/17 11:31:42;;;;;;;0.17;0.17;;;;;;;;;;5046899;28;20052;-80
2023/01/17 11:34:15;;;;;;;0.22;0.22;;;;;;;;;;5047190;28;20379;-82
2023/01/17 11:36:42;;;;;;;1.27;0.30;;;;;;;;;;5046971;28;20053;-80
2023/01/17 11:39:22;;;;;;;0.13;0.13;;;;;;;;;;5057047;28;20442;-80
2023/01/17 11:41:49;;;;;;;0.10;0.10;;;;;;;;;;5058383;28;20024;-81
2023/01/17 11:44:35;;;;;;;0.10;0.10;;;;;;;;;;5066956;28;20063;-81
2023/01/17 11:47:13;;;;;;;0.20;0.20;;;;;;;;;;5066879;28;20028;-81
2023/01/17 11:49:40;;;;;;;0.30;0.30;;;;;;;;;;5060270;28;20476;-81
2023/01/17 11:52:08;;;;;;;0.50;0.30;;;;;;;;;;5046859;28;20264;-81
2023/01/17 11:54:38;;;;;;;0.35;0.20;;;;;;;;;;5053792;28;20554;-82
2023/01/17 11:57:04;;;;;;;0.45;0.40;;;;;;;;;;5052861;28;20025;-81
2023/01/17 11:59:37;;;;;;;0.65;0.30;;;;;;;;;;5047760;28;20104;-81
2023/01/17 12:02:14;;;;;;;0.20;0.20;;;;;;;;;;5046770;28;20048;-81
2023/01/17 12:04:42;;;;;;;0.65;0.20;;;;;;;;;;5062503;28;20039;-81
2023/01/17 12:07:14;;;;;;;0.20;0.20;;;;;;;;;;5067178;28;20024;-81
2023/01/17 12:09:59;;;;;;;0.30;0.30;;;;;;;;;;5066804;28;20112;-82
2023/01/17 12:15:26;;;;;;;0.17;0.17;;;;;;;;;;5061621;28;20063;-81
2023/01/17 12:17:58;;;;;;;0.20;0.20;;;;;;;;;;5048736;28;20033;-81
2023/01/17 12:20:27;;;;;;;0.50;0.40;;;;;;;;;;5050610;28;20056;-81
2023/01/17 12:23:18;;;;;;;0.30;0.30;;;;;;;;;;5054343;28;20048;-79
2023/01/17 12:25:44;;;;;;;1.48;0.40;;;;;;;;;;5068291;28;20028;-80
2023/01/17 12:28:29;;;;;;;0.65;0.30;;;;;;;;;;5065338;28;20017;-80
2023/01/17 12:30:55;;;;;;;1.42;0.35;;;;;;;;;;5070117;28;20488;-80
2023/01/17 12:33:40;;;;;;;0.70;0.20;;;;;;;;;;5070370;28;20148;-80
2023/01/17 12:36:16;;;;;;;0.80;0.45;;;;;;;;;;5054864;28;20032;-81
2023/01/17 12:38:43;;;;;;;0.35;0.35;;;;;;;;;;5055979;28;20051;-82
2023/01/17 12:41:12;;;;;;;0.25;0.20;;;;;;;;;;5056419;28;20060;-82
2023/01/17 12:43:41;;;;;;;0.82;0.30;;;;;;;;;;5050300;28;20116;-82
2023/01/17 12:46:27;;;;;;;0.43;0.20;;;;;;;;;;5050280;28;20029;-82
2023/01/17 12:48:59;;;;;;;0.95;0.30;;;;;;;;;;5056046;28;20029;-82
2023/01/17 12:51:28;;;;;;;0.30;0.30;;;;;;;;;;5069009;28;20107;-81
2023/01/17 12:54:09;;;;;;;0.20;0.20;;;;;;;;;;5062264;28;20040;-82
2023/01/17 12:56:48;;;;;;;0.30;0.30;;;;;;;;;;5053209;28;20032;-81
2023/01/17 12:59:17;;;;;;;1.15;0.43;;;;;;;;;;5070102;28;20380;-81
2023/01/17 13:01:46;;;;;;;0.40;0.40;;;;;;;;;;5069596;28;20028;-82
2023/01/17 13:04:22;;;;;;;0.28;0.28;;;;;;;;;;5069993;28;20025;-81
2023/01/17 13:07:00;;;;;;;0.25;0.22;;;;;;;;;;5052061;28;20071;-81
2023/01/17 13:09:32;;;;;;;3.05;0.50;;;;;;;;;;5049718;28;20082;-81
2023/01/17 13:12:05;;;;;;;0.35;0.35;;;;;;;;;;5051634;28;20082;-80
2023/01/17 13:14:31;;;;;;;1.30;0.35;;;;;;;;;;5057709;28;20029;-80
2023/01/17 13:16:57;;;;;;;0.70;0.43;;;;;;;;;;5063294;28;20044;-80
2023/01/17 13:19:46;;;;;;;0.40;0.40;;;;;;;;;;5055696;28;20592;-80
2023/01/17 13:22:16;;;;;;;2.58;0.40;;;;;;;;;;5052157;28;20668;-80
2023/01/17 13:25:01;;;;;;;0.85;0.60;;;;;;;;;;5050642;28;20484;-81
2023/01/17 13:27:38;;;;;;;0.20;0.20;;;;;;;;;;5050887;28;20041;-80
2023/01/17 13:30:21;;;;;;;1.15;0.30;;;;;;;;;;5052804;28;20776;-80
2023/01/17 13:33:03;;;;;;;0.35;0.30;;;;;;;;;;5049654;28;20067;-80
2023/01/17 13:35:41;;;;;;;2.28;0.30;;;;;;;;;;5050425;28;20172;-80
2023/01/17 13:38:26;;;;;;;1.65;0.45;;;;;;;;;;5051240;28;20025;-80
2023/01/17 13:40:53;;;;;;;0.35;0.30;;;;;;;;;;5048789;28;20468;-80
2023/01/17 13:43:22;;;;;;;0.65;0.43;;;;;;;;;;5050404;28;20552;-80
2023/01/17 13:45:52;;;;;;;1.58;0.55;;;;;;;;;;5063237;28;20021;-80
2023/01/17 13:48:18;;;;;;;0.43;0.30;;;;;;;;;;5055541;28;20012;-80
2023/01/17 13:50:44;;;;;;;3.38;0.40;;;;;;;;;;5068288;28;20024;-80
2023/01/17 13:53:30;;;;;;;0.70;0.38;;;;;;;;;;5054660;28;20051;-80
2023/01/17 13:56:11;;;;;;;0.30;0.22;;;;;;;;;;5053712;28;20033;-79
2023/01/17 13:58:37;;;;;;;;;;;;;;;;;;5048868;28;20028;-80
2023/01/17 14:01:03;;;;;;;0.82;0.60;;;;;;;;;;5051894;28;19971;-80
2023/01/17 14:03:49;;;;;;;0.70;0.40;;;;;;;;;;5058986;28;20259;-79
2023/01/17 14:06:29;;;;;;;0.45;0.28;;;;;;;;;;5055752;28;20050;-79
2023/01/17 14:08:59;;;;;;;0.70;0.70;;;;;;;;;;5048517;28;20032;-80
2023/01/17 14:11:25;;;;;;;0.63;0.63;;;;;;;;;;5053613;28;20031;-80
2023/01/17 14:13:51;;;;;;;1.17;0.50;;;;;;;;;;5057758;28;20532;-80
2023/01/17 14:16:20;;;;;;;0.40;0.40;;;;;;;;;;5057966;28;20032;-80
2023/01/17 14:18:47;;;;;;;0.52;0.50;;;;;;;;;;5053992;28;20029;-79
2023/01/17 14:21:19;;;;;;;0.30;0.30;;;;;;;;;;5052613;28;20025;-79
2023/01/17 14:23:48;;;;;;;0.75;0.40;;;;;;;;;;5060770;28;20020;-79
2023/01/17 14:26:33;;;;;;;0.52;0.50;;;;;;;;;;5054109;28;20028;-79
2023/01/17 14:29:19;;;;;;;0.35;0.30;;;;;;;;;;5062509;28;20128;-79
2023/01/17 14:31:46;;;;;;;0.85;0.45;;;;;;;;;;5056280;28;20044;-79
2023/01/17 14:34:12;;;;;;;0.20;0.20;;;;;;;;;;5060465;28;20032;-79
2023/01/17 14:36:39;;;;;;;1.33;0.38;;;;;;;;;;5057264;28;20022;-79
2023/01/17 14:39:19;;;;;;;0.70;0.30;;;;;;;;;;5050758;28;20422;-80
2023/01/17 14:41:45;;;;;;;0.47;0.40;;;;;;;;;;5047258;28;20032;-80
2023/01/17 14:44:12;;;;;;;0.22;0.22;;;;;;;;;;5053484;28;20442;-80
2023/01/17 14:46:38;;;;;;;0.43;0.43;;;;;;;;;;5057697;28;20025;-81
2023/01/17 14:49:05;;;;;;;0.20;0.10;;;;;;;;;;5062368;28;20028;-76
2023/01/17 14:51:33;;;;;;;0.40;0.28;;;;;;;;;;5063352;28;20029;-76
2023/01/17 14:54:01;;;;;;;0.45;0.45;;;;;;;;;;5051405;28;20120;-77
2023/01/17 14:56:28;;;;;;;1.02;0.40;;;;;;;;;;5051551;28;20111;-76
2023/01/17 14:59:13;;;;;;;0.30;0.30;;;;;;;;;;5058555;28;20032;-79
2023/01/17 15:01:39;;;;;;;0.63;0.35;;;;;;;;;;5062631;28;20070;-79
2023/01/17 15:04:05;;;;;;;0.45;0.40;;;;;;;;;;5060919;28;20021;-77
2023/01/17 15:06:37;;;;;;;0.30;0.30;;;;;;;;;;5053207;28;20037;-77
2023/01/17 15:09:18;;;;;;;0.40;0.40;;;;;;;;;;5056263;28;20452;-77
2023/01/17 15:11:46;;;;;;;0.38;0.30;;;;;;;;;;5056143;28;20166;-77
2023/01/17 15:14:17;;;;;;;0.30;0.30;;;;;;;;;;5058621;28;20051;-77
2023/01/17 15:16:44;;;;;;;0.30;0.30;;;;;;;;;;5073626;28;20016;-76
2023/01/17 15:19:11;;;;;;;0.40;0.40;;;;;;;;;;5054937;28;20100;-76
2023/01/17 15:21:41;;;;;;;2.00;0.47;;;;;;;;;;5048494;28;20033;-78
2023/01/17 15:24:12;;;;;;;0.33;0.30;;;;;;;;;;5047120;28;20029;-76
2023/01/17 15:26:42;;;;;;;1.17;0.28;;;;;;;;;;5059740;28;20302;-75
2023/01/17 15:29:14;;;;;;;0.95;0.60;;;;;;;;;;5047406;28;20041;-74
2023/01/17 15:31:42;;;;;;;0.52;0.35;;;;;;;;;;5054175;28;20048;-76
2023/01/17 15:34:09;;;;;;;0.40;0.28;;;;;;;;;;5059911;28;20153;-72
2023/01/17 15:36:38;;;;;;;0.30;0.30;;;;;;;;;;5049631;28;20056;-73
2023/01/17 15:39:14;;;;;;;1.23;0.38;;;;;;;;;;5054246;28;20027;-75
2023/01/17 15:41:40;;;;;;;0.52;0.38;;;;;;;;;;5053320;28;20135;-74
2023/01/17 15:44:07;;;;;;;0.40;0.40;;;;;;;;;;5056979;28;20364;-75
2023/01/17 15:46:40;;;;;;;1.25;0.70;;;;;;;;;;5057260;28;20028;-74
2023/01/17 15:49:12;;;;;;;0.80;0.20;;;;;;;;;;5047900;28;20025;-73
2023/01/17 15:51:40;;;;;;;0.30;0.30;;;;;;;;;;5061376;28;20020;-74
2023/01/17 15:54:25;;;;;;;0.90;0.38;;;;;;;;;;5049991;28;20395;-75
2023/01/17 15:57:05;;;;;;;1.20;0.35;;;;;;;;;;5053592;28;20017;-74
2023/01/17 15:59:44;;;;;;;0.35;0.35;;;;;;;;;;5050599;28;20027;-74
2023/01/17 16:02:23;;;;;;;0.95;0.43;;;;;;;;;;5059425;28;20056;-74
2023/01/17 16:04:49;;;;;;;1.25;0.50;;;;;;;;;;5059217;28;20044;-74
2023/01/17 16:07:21;;;;;;;0.80;0.70;;;;;;;;;;5061866;28;20024;-75
2023/01/17 16:09:48;;;;;;;0.52;0.52;;;;;;;;;;5061102;28;20064;-74
2023/01/17 16:12:14;;;;;;;0.80;0.50;;;;;;;;;;5064544;28;20032;-75
2023/01/17 16:14:40;;;;;;;0.70;0.52;;;;;;;;;;5053353;28;21032;-74
2023/01/17 16:17:09;;;;;;;0.45;0.43;;;;;;;;;;5053245;28;20624;-74
2023/01/17 16:19:35;;;;;;;2.30;0.57;;;;;;;;;;5053325;28;20021;-74
2023/01/17 16:22:02;;;;;;;0.43;0.40;;;;;;;;;;5051712;28;20884;-74
2023/01/17 16:24:40;;;;;;;1.42;0.60;;;;;;;;;;5062240;28;20116;-75
2023/01/17 16:27:07;;;;;;;1.25;0.40;;;;;;;;;;5059991;28;20024;-74